Time;durP1;ratioP1;P1;durP2;ratioP2;P2;SDS_P1;SDS_P2;PMS_P1;PMS_P2;Temp;Humidity;BMP_temperature;BMP_pressure;BME280_temperature;BME280_humidity;BME280_pressure;Samples;Min_cycle;Max_cycle;Signal;HPM_P1;HPM_P2
2022/12/31 00:01:39;;;;;;;2.65;2.55;;;13.00;99.90;;;;;;5093686;28;20193;-66
2022/12/31 00:04:04;;;;;;;2.35;2.25;;;13.10;99.90;;;;;;5093896;28;20220;-66
2022/12/31 00:06:32;;;;;;;2.67;2.58;;;13.10;99.90;;;;;;5094165;28;20637;-66
2022/12/31 00:09:00;;;;;;;3.25;3.05;;;13.10;99.90;;;;;;5093634;28;20208;-66
2022/12/31 00:11:27;;;;;;;3.95;3.65;;;13.10;99.90;;;;;;5092596;28;20188;-66
2022/12/31 00:13:53;;;;;;;3.50;3.25;;;13.10;99.90;;;;;;5092337;28;20260;-65
2022/12/31 00:16:22;;;;;;;2.80;2.50;;;13.10;99.90;;;;;;5092279;28;20177;-66
2022/12/31 00:18:50;;;;;;;2.60;2.50;;;13.00;99.90;;;;;;5092168;28;20661;-65
2022/12/31 00:21:17;;;;;;;3.22;2.75;;;13.00;99.90;;;;;;5093461;28;20219;-65
2022/12/31 00:23:43;;;;;;;2.60;2.50;;;13.00;99.90;;;;;;5093577;28;20613;-65
2022/12/31 00:26:15;;;;;;;3.17;2.45;;;13.00;99.90;;;;;;5092020;28;20854;-66
2022/12/31 00:28:41;;;;;;;2.63;2.50;;;13.00;99.90;;;;;;5093627;28;20513;-66
2022/12/31 00:31:10;;;;;;;2.58;2.42;;;12.90;99.90;;;;;;5093502;28;20268;-66
2022/12/31 00:33:37;;;;;;;2.45;2.35;;;13.00;99.90;;;;;;5093269;28;20168;-66
2022/12/31 00:36:13;;;;;;;2.30;2.20;;;12.90;99.90;;;;;;5093633;28;20165;-66
2022/12/31 00:38:41;;;;;;;2.50;2.40;;;12.90;99.90;;;;;;5093482;28;20169;-65
2022/12/31 00:41:07;;;;;;;2.58;2.47;;;12.90;99.90;;;;;;5093188;28;20197;-66
2022/12/31 00:43:34;;;;;;;2.70;2.50;;;12.80;99.90;;;;;;5091800;28;20197;-65
2022/12/31 00:46:00;;;;;;;2.85;2.65;;;12.70;99.90;;;;;;5093750;28;20203;-65
2022/12/31 00:48:26;;;;;;;3.65;3.08;;;12.60;99.90;;;;;;5093036;28;20174;-66
2022/12/31 00:50:53;;;;;;;2.60;2.50;;;12.60;99.90;;;;;;5093162;28;20169;-66
2022/12/31 00:53:19;;;;;;;2.80;2.60;;;12.50;99.90;;;;;;5093676;28;20169;-66
2022/12/31 00:55:44;;;;;;;2.60;2.50;;;12.40;99.90;;;;;;5093183;28;20165;-65
2022/12/31 00:58:10;;;;;;;5.78;2.53;;;12.40;99.90;;;;;;5093209;28;20544;-66
2022/12/31 01:00:37;;;;;;;2.80;2.70;;;12.30;99.90;;;;;;5093259;28;20216;-66
2022/12/31 01:03:03;;;;;;;2.95;2.75;;;12.20;99.90;;;;;;5091808;28;20245;-66
2022/12/31 01:05:30;;;;;;;2.92;2.80;;;12.20;99.90;;;;;;5093402;28;20244;-66
2022/12/31 01:07:56;;;;;;;3.72;3.47;;;12.30;99.90;;;;;;5093384;28;20513;-66
2022/12/31 01:13:07;;;;;;;3.00;2.80;;;12.20;99.90;;;;;;5093555;28;20168;-66
2022/12/31 01:15:34;;;;;;;2.80;2.70;;;12.20;99.90;;;;;;5093127;28;20256;-66
2022/12/31 01:18:01;;;;;;;4.97;2.72;;;12.20;99.90;;;;;;5092909;28;20169;-66
2022/12/31 01:20:27;;;;;;;2.80;2.60;;;12.20;99.90;;;;;;5095126;28;20242;-66
2022/12/31 01:22:53;;;;;;;2.78;2.67;;;12.20;99.90;;;;;;5097140;28;20177;-66
2022/12/31 01:25:19;;;;;;;2.85;2.65;;;12.30;99.90;;;;;;5095464;28;20642;-66
2022/12/31 01:27:45;;;;;;;3.10;2.90;;;12.30;99.90;;;;;;5096775;28;20257;-65
2022/12/31 01:30:11;;;;;;;2.50;2.40;;;12.30;99.90;;;;;;5096312;28;20264;-66
2022/12/31 01:32:37;;;;;;;2.67;2.55;;;12.40;99.90;;;;;;5096391;28;20192;-66
2022/12/31 01:35:02;;;;;;;2.50;2.40;;;12.40;99.90;;;;;;5096434;28;20633;-66
2022/12/31 01:37:28;;;;;;;2.58;2.47;;;12.50;99.90;;;;;;5096410;28;20589;-65
2022/12/31 01:39:54;;;;;;;2.50;2.40;;;12.50;99.90;;;;;;5096290;28;20254;-65
2022/12/31 01:42:20;;;;;;;2.75;2.65;;;12.70;99.90;;;;;;5096837;28;20177;-66
2022/12/31 01:44:52;;;;;;;2.40;2.30;;;12.70;99.90;;;;;;5096208;28;20189;-65
2022/12/31 01:47:26;;;;;;;2.60;2.40;;;12.70;99.90;;;;;;5096222;28;20200;-65
2022/12/31 01:50:08;;;;;;;3.38;3.17;;;12.70;99.90;;;;;;5096289;28;20279;-64
2022/12/31 01:52:39;;;;;;;3.13;2.90;;;12.70;99.90;;;;;;5096769;28;20198;-64
2022/12/31 01:55:25;;;;;;;4.03;3.65;;;12.80;99.90;;;;;;5096004;28;20206;-65
2022/12/31 01:57:56;;;;;;;2.40;2.30;;;12.80;99.90;;;;;;5096389;28;20164;-65
2022/12/31 02:00:22;;;;;;;3.20;2.90;;;12.80;99.90;;;;;;5096141;28;20696;-65
2022/12/31 02:02:48;;;;;;;3.85;3.47;;;12.80;99.90;;;;;;5094568;28;20249;-65
2022/12/31 02:05:49;;;;;;;2.83;2.63;;;12.80;99.90;;;;;;5096189;28;20255;-65
2022/12/31 02:08:15;;;;;;;2.50;2.30;;;12.90;99.90;;;;;;5056784;28;20213;-65
2022/12/31 02:10:41;;;;;;;2.25;2.15;;;12.90;99.90;;;;;;5091016;28;20216;-65
2022/12/31 02:13:07;;;;;;;2.13;2.03;;;12.90;99.90;;;;;;5095728;28;20636;-65
2022/12/31 02:16:18;;;;;;;2.65;2.20;;;12.90;99.90;;;;;;5095620;28;20250;-65
2022/12/31 02:19:32;;;;;;;2.28;2.17;;;13.00;99.90;;;;;;5095441;28;20290;-64
2022/12/31 02:22:16;;;;;;;2.15;2.08;;;13.00;99.90;;;;;;5076320;28;20193;-65
2022/12/31 02:25:13;;;;;;;2.13;2.10;;;13.10;99.90;;;;;;5095508;28;20226;-65
2022/12/31 02:27:50;;;;;;;2.30;2.10;;;13.10;99.90;;;;;;5095762;28;20545;-64
2022/12/31 02:30:20;;;;;;;2.33;2.22;;;13.20;99.90;;;;;;5095241;28;20229;-64
2022/12/31 02:33:03;;;;;;;2.50;2.30;;;13.30;99.90;;;;;;5095366;28;20630;-65
2022/12/31 02:35:53;;;;;;;2.15;2.05;;;13.40;99.90;;;;;;5095660;28;20157;-65
2022/12/31 02:38:25;;;;;;;2.20;2.10;;;13.50;99.90;;;;;;5095684;28;20515;-66
2022/12/31 02:40:56;;;;;;;1.90;1.90;;;13.50;99.90;;;;;;5093890;28;20184;-65
2022/12/31 02:43:22;;;;;;;2.17;2.10;;;13.60;99.90;;;;;;5095098;28;20189;-65
2022/12/31 02:46:16;;;;;;;2.05;2.03;;;13.70;99.90;;;;;;5095135;28;20179;-65
2022/12/31 02:48:53;;;;;;;1.92;1.92;;;13.70;99.90;;;;;;5094947;28;20551;-65
2022/12/31 02:51:25;;;;;;;2.72;2.05;;;13.80;99.90;;;;;;5093847;28;20169;-64
2022/12/31 02:54:09;;;;;;;2.10;2.00;;;14.00;99.90;;;;;;5095074;28;20240;-65
2022/12/31 02:56:44;;;;;;;3.30;2.00;;;14.00;99.90;;;;;;5095923;28;20509;-64
2022/12/31 03:02:13;;;;;;;2.15;2.05;;;14.10;99.90;;;;;;5094825;28;20238;-64
2022/12/31 03:04:48;;;;;;;2.20;2.10;;;14.10;99.90;;;;;;5095183;28;20554;-64
2022/12/31 03:07:28;;;;;;;2.00;2.00;;;14.00;99.90;;;;;;5095168;28;20192;-65
2022/12/31 03:09:54;;;;;;;1.90;1.90;;;14.00;99.90;;;;;;5094693;28;20181;-66
2022/12/31 03:15:18;;;;;;;2.00;2.00;;;13.90;99.90;;;;;;5095426;28;20184;-65
2022/12/31 03:17:54;;;;;;;2.20;2.10;;;13.90;99.90;;;;;;5093161;28;20681;-65
2022/12/31 03:23:10;;;;;;;2.10;2.00;;;13.80;99.90;;;;;;5094390;28;20234;-66
2022/12/31 03:25:39;;;;;;;3.50;2.30;;;13.70;99.90;;;;;;5094494;28;20260;-65
2022/12/31 03:28:14;;;;;;;2.10;2.00;;;13.60;99.90;;;;;;5094370;28;20238;-65
2022/12/31 03:30:45;;;;;;;2.15;2.05;;;13.50;99.90;;;;;;5094600;28;20231;-65
2022/12/31 03:33:11;;;;;;;1.90;1.90;;;13.60;99.90;;;;;;5094545;28;20169;-66
2022/12/31 03:35:38;;;;;;;2.10;2.00;;;13.60;99.90;;;;;;5094434;28;20184;-65
2022/12/31 03:38:04;;;;;;;2.15;2.05;;;13.60;99.90;;;;;;5094785;28;20253;-65
2022/12/31 03:40:33;;;;;;;2.10;1.90;;;13.50;99.90;;;;;;5094248;28;20221;-65
2022/12/31 03:42:58;;;;;;;2.20;2.10;;;13.50;99.90;;;;;;5093985;28;20589;-65
2022/12/31 03:45:24;;;;;;;2.08;2.00;;;13.40;99.90;;;;;;5093210;28;20238;-65
2022/12/31 03:47:50;;;;;;;2.15;2.10;;;13.50;99.90;;;;;;5092850;28;20205;-65
2022/12/31 03:50:17;;;;;;;2.30;2.20;;;13.50;99.90;;;;;;5094293;28;20193;-65
2022/12/31 03:52:43;;;;;;;2.30;2.20;;;13.50;99.90;;;;;;5094291;28;20173;-65
2022/12/31 03:55:10;;;;;;;2.10;2.00;;;13.40;99.90;;;;;;5094273;28;20168;-65
2022/12/31 03:57:37;;;;;;;2.42;2.22;;;13.40;99.90;;;;;;5094229;28;20177;-65
2022/12/31 04:00:09;;;;;;;2.40;2.20;;;13.30;99.90;;;;;;5094339;28;20594;-65
2022/12/31 04:02:35;;;;;;;2.22;2.10;;;13.30;99.90;;;;;;5094329;28;20226;-65
2022/12/31 04:05:01;;;;;;;2.53;2.10;;;13.20;99.90;;;;;;5092547;28;20181;-66
2022/12/31 04:07:27;;;;;;;2.38;2.28;;;13.30;99.90;;;;;;5094199;28;20532;-65
2022/12/31 04:09:52;;;;;;;2.30;2.10;;;13.20;99.90;;;;;;5093638;28;20246;-65
2022/12/31 04:12:18;;;;;;;4.10;2.25;;;13.30;99.90;;;;;;5093902;28;20169;-65
2022/12/31 04:14:44;;;;;;;2.20;2.10;;;13.30;99.90;;;;;;5093661;28;20176;-65
2022/12/31 04:17:10;;;;;;;2.20;2.10;;;13.30;99.90;;;;;;5093417;28;20622;-65
2022/12/31 04:19:36;;;;;;;2.30;2.20;;;13.30;99.90;;;;;;5093532;28;20227;-65
2022/12/31 04:22:02;;;;;;;2.90;2.17;;;13.40;99.90;;;;;;5093596;28;20566;-66
2022/12/31 04:24:28;;;;;;;4.22;2.20;;;13.40;99.90;;;;;;5093532;28;20225;-66
2022/12/31 04:26:54;;;;;;;2.10;2.00;;;13.40;99.90;;;;;;5093686;28;20201;-65
2022/12/31 04:29:19;;;;;;;2.30;2.20;;;13.50;99.90;;;;;;5093374;28;20189;-66
2022/12/31 04:31:45;;;;;;;2.22;2.10;;;13.40;99.90;;;;;;5093477;28;20652;-65
2022/12/31 04:34:11;;;;;;;2.20;2.10;;;13.50;99.90;;;;;;5093356;28;20173;-66
2022/12/31 04:36:36;;;;;;;2.30;2.20;;;13.60;99.90;;;;;;5093940;28;20179;-66
2022/12/31 04:39:02;;;;;;;2.10;2.00;;;13.70;99.90;;;;;;5093331;28;20216;-66
2022/12/31 04:41:28;;;;;;;2.30;2.20;;;13.70;99.90;;;;;;5092103;28;20260;-65
2022/12/31 04:43:57;;;;;;;2.03;2.00;;;13.70;99.90;;;;;;5092045;28;20645;-65
2022/12/31 04:46:25;;;;;;;2.80;2.15;;;13.70;99.90;;;;;;5093330;28;20246;-65
2022/12/31 04:48:51;;;;;;;2.20;2.10;;;13.70;99.90;;;;;;5093127;28;20260;-65
2022/12/31 04:51:17;;;;;;;2.10;2.00;;;13.80;99.90;;;;;;5093587;28;20260;-66
2022/12/31 04:53:42;;;;;;;2.13;2.03;;;13.80;99.90;;;;;;5093639;28;20173;-65
2022/12/31 04:56:08;;;;;;;5.22;2.08;;;13.70;99.90;;;;;;5096680;28;20177;-65
2022/12/31 04:58:35;;;;;;;2.20;2.10;;;13.70;99.90;;;;;;5097617;28;20177;-65
2022/12/31 05:01:01;;;;;;;2.00;1.90;;;13.70;99.90;;;;;;5098293;28;20268;-65
2022/12/31 05:03:27;;;;;;;2.00;2.00;;;13.60;99.90;;;;;;5096267;28;20696;-66
2022/12/31 05:05:53;;;;;;;2.20;2.03;;;13.70;99.90;;;;;;5096582;28;20176;-65
2022/12/31 05:08:19;;;;;;;2.20;2.10;;;13.70;99.90;;;;;;5098077;28;20201;-65
2022/12/31 05:10:47;;;;;;;2.00;1.90;;;13.70;99.90;;;;;;5097460;28;20369;-65
2022/12/31 05:13:13;;;;;;;1.98;1.92;;;13.90;99.90;;;;;;5097665;28;20170;-66
2022/12/31 05:15:39;;;;;;;2.15;2.00;;;14.00;99.90;;;;;;5097336;28;20172;-65
2022/12/31 05:18:06;;;;;;;2.00;1.90;;;14.10;99.90;;;;;;5096873;28;20664;-65
2022/12/31 05:20:32;;;;;;;2.00;1.90;;;14.20;99.90;;;;;;5097044;28;20275;-66
2022/12/31 05:22:58;;;;;;;2.20;2.10;;;14.30;99.90;;;;;;5097085;28;20659;-66
2022/12/31 05:25:23;;;;;;;1.88;1.88;;;14.30;99.90;;;;;;5097483;28;20185;-66
2022/12/31 05:27:49;;;;;;;2.10;2.00;;;14.40;99.90;;;;;;5095756;28;20205;-65
2022/12/31 05:30:17;;;;;;;2.20;2.00;;;14.40;99.90;;;;;;5097088;28;20189;-66
2022/12/31 05:32:43;;;;;;;2.30;2.10;;;14.50;99.90;;;;;;5096884;28;20188;-65
2022/12/31 05:35:09;;;;;;;2.00;1.90;;;14.60;99.90;;;;;;5096693;28;20176;-65
2022/12/31 05:37:35;;;;;;;2.10;2.00;;;14.50;99.90;;;;;;5096912;28;20177;-65
2022/12/31 05:40:01;;;;;;;3.72;2.20;;;14.60;99.90;;;;;;5096530;28;20541;-66
2022/12/31 05:42:27;;;;;;;2.00;1.90;;;14.60;99.90;;;;;;5096403;28;20202;-65
2022/12/31 05:44:53;;;;;;;2.25;2.10;;;14.70;99.90;;;;;;5096340;28;20192;-65
2022/12/31 05:47:19;;;;;;;2.47;2.00;;;14.90;99.90;;;;;;5096386;28;20196;-65
2022/12/31 05:49:45;;;;;;;2.00;1.90;;;15.00;99.90;;;;;;5096666;28;20189;-65
2022/12/31 05:52:10;;;;;;;2.08;1.98;;;15.00;99.90;;;;;;5095139;28;20208;-65
2022/12/31 05:54:36;;;;;;;2.15;2.05;;;15.00;99.90;;;;;;5096358;28;20185;-66
2022/12/31 05:57:03;;;;;;;2.33;2.00;;;15.20;99.90;;;;;;5096410;28;20192;-65
2022/12/31 05:59:29;;;;;;;2.00;1.80;;;15.30;99.90;;;;;;5096120;28;20196;-65
2022/12/31 06:01:55;;;;;;;2.33;2.13;;;15.40;99.90;;;;;;5096027;28;20192;-65
2022/12/31 06:04:21;;;;;;;2.00;1.90;;;15.30;99.90;;;;;;5096328;28;20567;-65
2022/12/31 06:06:48;;;;;;;1.80;1.80;;;15.40;99.90;;;;;;5095742;28;20196;-65
2022/12/31 06:09:15;;;;;;;3.00;2.05;;;15.50;99.90;;;;;;5095844;28;20269;-65
2022/12/31 06:11:41;;;;;;;2.28;2.00;;;15.60;99.90;;;;;;5095868;28;20252;-66
2022/12/31 06:14:07;;;;;;;2.20;2.00;;;15.70;99.90;;;;;;5095753;28;20243;-65
2022/12/31 06:16:33;;;;;;;2.03;1.92;;;15.70;99.90;;;;;;5095777;28;20169;-65
2022/12/31 06:19:00;;;;;;;4.38;1.98;;;15.60;99.90;;;;;;5095796;28;20628;-65
2022/12/31 06:21:26;;;;;;;5.63;1.90;;;15.60;99.90;;;;;;5095598;28;20641;-66
2022/12/31 06:23:52;;;;;;;2.65;2.45;;;15.80;99.90;;;;;;5096007;28;20563;-65
2022/12/31 06:26:18;;;;;;;2.13;1.92;;;15.70;99.90;;;;;;5096107;28;20197;-65
2022/12/31 06:28:43;;;;;;;2.10;2.00;;;15.70;99.90;;;;;;5095486;28;20181;-65
2022/12/31 06:31:11;;;;;;;2.08;1.98;;;15.80;99.90;;;;;;5095519;28;20181;-66
2022/12/31 06:33:37;;;;;;;2.22;2.00;;;15.90;99.90;;;;;;5094149;28;20570;-66
2022/12/31 06:36:06;;;;;;;2.38;2.05;;;15.90;99.90;;;;;;5093942;28;20177;-67
2022/12/31 06:38:35;;;;;;;2.03;1.90;;;15.90;99.90;;;;;;5095779;28;20180;-66
2022/12/31 06:41:09;;;;;;;3.40;2.08;;;16.10;99.90;;;;;;5095600;28;20176;-66
2022/12/31 06:43:35;;;;;;;2.83;2.00;;;16.10;99.90;;;;;;5095177;28;20264;-65
2022/12/31 06:46:02;;;;;;;2.78;2.08;;;16.30;99.90;;;;;;5095940;28;20561;-66
2022/12/31 06:48:28;;;;;;;4.00;2.42;;;16.40;99.90;;;;;;5095016;28;20173;-66
2022/12/31 06:50:54;;;;;;;4.20;1.88;;;16.30;99.90;;;;;;5095648;28;20539;-65
2022/12/31 06:53:19;;;;;;;2.22;2.00;;;16.20;99.90;;;;;;5094914;28;20177;-64
2022/12/31 06:55:47;;;;;;;1.92;1.83;;;16.30;99.90;;;;;;5094825;28;20180;-64
2022/12/31 06:58:15;;;;;;;3.17;2.03;;;16.40;99.90;;;;;;5095422;28;20618;-65
2022/12/31 07:01:08;;;;;;;2.10;2.00;;;16.40;99.90;;;;;;5094603;28;20205;-66
2022/12/31 07:04:07;;;;;;;2.22;2.05;;;16.40;99.90;;;;;;5094235;28;20228;-65
2022/12/31 07:07:17;;;;;;;2.75;2.00;;;16.50;99.90;;;;;;5094775;28;20193;-65
2022/12/31 07:10:22;;;;;;;3.65;2.10;;;16.40;99.90;;;;;;5095112;28;20669;-64
2022/12/31 07:13:14;;;;;;;3.83;2.45;;;16.40;99.90;;;;;;5094849;28;20165;-65
2022/12/31 07:15:56;;;;;;;6.35;2.20;;;16.40;99.90;;;;;;5094840;28;20158;-65
2022/12/31 07:18:49;;;;;;;4.53;2.05;;;16.50;99.90;;;;;;5094215;28;20196;-64
2022/12/31 07:21:19;;;;;;;2.80;2.10;;;16.60;99.90;;;;;;5094818;28;20158;-65
2022/12/31 07:23:45;;;;;;;3.20;1.90;;;16.70;99.90;;;;;;5094726;28;20200;-65
2022/12/31 07:26:41;;;;;;;2.42;2.20;;;16.60;99.90;;;;;;5094269;28;20205;-65
2022/12/31 07:29:17;;;;;;;3.47;1.90;;;16.70;99.90;;;;;;5093119;28;20201;-65
2022/12/31 07:32:19;;;;;;;4.68;1.70;;;16.60;99.90;;;;;;5094877;28;20176;-65
2022/12/31 07:35:12;;;;;;;2.50;1.85;;;16.70;99.90;;;;;;5094847;28;20179;-66
2022/12/31 07:38:16;;;;;;;1.80;1.65;;;16.70;99.90;;;;;;5086083;28;20277;-66
2022/12/31 07:41:06;;;;;;;3.13;1.90;;;16.70;99.90;;;;;;5092297;28;20216;-66
2022/12/31 07:43:52;;;;;;;3.25;1.83;;;16.60;99.90;;;;;;5094285;28;20272;-66
2022/12/31 07:46:35;;;;;;;2.10;2.00;;;16.40;99.90;;;;;;5094172;28;20200;-66
2022/12/31 07:49:01;;;;;;;2.47;2.28;;;16.50;99.90;;;;;;5093831;28;20193;-66
2022/12/31 07:51:28;;;;;;;2.30;2.08;;;16.50;99.90;;;;;;5093929;28;20173;-66
2022/12/31 07:53:53;;;;;;;2.15;1.88;;;16.50;99.90;;;;;;5094133;28;20166;-66
2022/12/31 07:56:20;;;;;;;3.53;2.20;;;16.60;99.90;;;;;;5093692;28;20177;-66
2022/12/31 07:59:22;;;;;;;2.20;1.90;;;16.50;99.90;;;;;;5093825;28;20193;-66
2022/12/31 08:02:02;;;;;;;4.00;2.17;;;16.50;99.90;;;;;;5089799;28;20193;-65
2022/12/31 08:04:37;;;;;;;2.17;1.77;;;16.50;99.90;;;;;;5093627;28;20639;-66
2022/12/31 08:07:16;;;;;;;2.10;2.00;;;16.40;99.90;;;;;;5093621;28;20280;-66
2022/12/31 08:09:48;;;;;;;2.17;1.90;;;16.40;99.90;;;;;;5093637;28;20272;-67
2022/12/31 08:12:14;;;;;;;2.40;1.92;;;16.30;99.90;;;;;;5092392;28;20172;-66
2022/12/31 08:14:47;;;;;;;2.15;1.92;;;16.30;99.90;;;;;;5092325;28;20172;-66
2022/12/31 08:17:15;;;;;;;2.83;1.90;;;16.40;99.90;;;;;;5092067;28;20579;-66
2022/12/31 08:19:42;;;;;;;1.83;1.73;;;16.40;99.90;;;;;;5093478;28;20231;-66
2022/12/31 08:22:21;;;;;;;2.08;1.90;;;16.50;99.90;;;;;;5093485;28;20204;-66
2022/12/31 08:25:14;;;;;;;2.78;2.00;;;16.50;99.90;;;;;;5094130;28;20606;-65
2022/12/31 08:28:02;;;;;;;2.08;1.90;;;16.50;99.90;;;;;;5093356;28;20672;-68
2022/12/31 08:30:49;;;;;;;2.95;2.03;;;16.60;99.90;;;;;;5100016;28;20239;-66
2022/12/31 08:33:44;;;;;;;2.83;1.98;;;16.60;99.90;;;;;;5099159;28;20176;-66
2022/12/31 08:36:36;;;;;;;2.80;1.70;;;16.60;99.90;;;;;;5091085;28;20188;-66
2022/12/31 08:39:19;;;;;;;5.50;1.90;;;16.60;99.90;;;;;;5100537;28;20193;-66
2022/12/31 08:41:50;;;;;;;2.50;1.85;;;16.60;99.90;;;;;;5100224;28;20153;-65
2022/12/31 08:44:33;;;;;;;2.85;2.08;;;16.60;99.90;;;;;;5100171;28;20188;-65
2022/12/31 08:47:16;;;;;;;2.00;1.90;;;16.70;99.90;;;;;;5099948;28;20193;-65
2022/12/31 08:49:42;;;;;;;4.25;1.83;;;16.70;99.90;;;;;;5098725;28;20196;-66
2022/12/31 08:52:29;;;;;;;2.10;2.00;;;16.70;99.90;;;;;;5100011;28;20169;-66
2022/12/31 08:54:55;;;;;;;2.42;1.90;;;16.60;99.90;;;;;;5098420;28;20180;-66
2022/12/31 08:57:35;;;;;;;2.20;2.08;;;16.70;99.90;;;;;;5100448;28;20176;-66
2022/12/31 09:00:16;;;;;;;2.10;1.90;;;16.70;99.90;;;;;;5100031;28;20199;-66
2022/12/31 09:03:01;;;;;;;1.90;1.80;;;16.60;99.90;;;;;;5099938;28;20539;-65
2022/12/31 09:05:36;;;;;;;2.00;1.90;;;16.60;99.90;;;;;;5100151;28;20501;-65
2022/12/31 09:08:07;;;;;;;1.80;1.70;;;16.70;99.90;;;;;;5100057;28;20220;-66
2022/12/31 09:10:54;;;;;;;3.28;2.03;;;16.70;99.90;;;;;;5099740;28;20189;-65
2022/12/31 09:13:44;;;;;;;2.00;1.90;;;16.70;99.90;;;;;;5099713;28;20165;-66
2022/12/31 09:16:26;;;;;;;2.00;1.80;;;16.70;99.90;;;;;;5098386;28;20667;-65
2022/12/31 09:18:52;;;;;;;2.58;1.83;;;16.70;99.90;;;;;;5099627;28;20185;-66
2022/12/31 09:21:17;;;;;;;2.15;1.92;;;16.80;99.90;;;;;;5099892;28;20170;-66
2022/12/31 09:23:43;;;;;;;2.10;2.00;;;16.80;99.90;;;;;;5100073;28;20180;-64
2022/12/31 09:26:33;;;;;;;1.83;1.73;;;16.90;99.90;;;;;;5099902;28;20181;-64
2022/12/31 09:29:24;;;;;;;1.90;1.80;;;16.90;99.90;;;;;;5099626;28;20197;-65
2022/12/31 09:32:01;;;;;;;2.90;2.00;;;16.90;99.90;;;;;;5099608;28;20715;-66
2022/12/31 09:34:41;;;;;;;2.50;2.00;;;16.90;99.90;;;;;;5099547;28;20173;-64
2022/12/31 09:37:18;;;;;;;3.22;2.47;;;16.80;99.90;;;;;;5099910;28;20157;-65
2022/12/31 09:39:47;;;;;;;2.60;2.15;;;16.80;99.90;;;;;;5099173;28;20199;-64
2022/12/31 09:42:46;;;;;;;2.30;2.10;;;16.90;99.90;;;;;;5095927;28;20231;-64
2022/12/31 09:45:25;;;;;;;4.70;2.17;;;17.00;99.90;;;;;;5096682;28;20743;-65
2022/12/31 09:48:04;;;;;;;2.25;1.95;;;16.90;99.90;;;;;;5096089;28;20267;-65
2022/12/31 09:50:57;;;;;;;3.13;2.38;;;16.90;99.90;;;;;;5096146;28;20680;-66
2022/12/31 09:53:36;;;;;;;4.45;2.25;;;16.90;99.90;;;;;;5096173;28;20272;-65
2022/12/31 09:56:30;;;;;;;4.25;2.53;;;17.00;99.90;;;;;;5096158;28;20157;-65
2022/12/31 09:58:58;;;;;;;3.00;2.17;;;16.90;99.90;;;;;;5096615;28;20193;-65
2022/12/31 10:01:32;;;;;;;4.07;2.00;;;16.90;99.90;;;;;;5094823;28;20181;-65
2022/12/31 10:04:21;;;;;;;7.05;2.00;;;17.00;99.90;;;;;;5096644;28;20563;-64
2022/12/31 10:07:11;;;;;;;2.30;2.10;;;16.90;99.90;;;;;;5092355;28;20716;-65
2022/12/31 10:09:56;;;;;;;5.00;2.10;;;17.00;99.90;;;;;;5094817;28;20200;-65
2022/12/31 10:12:50;;;;;;;3.90;2.20;;;17.10;99.90;;;;;;5096311;28;20613;-65
2022/12/31 10:15:34;;;;;;;4.93;2.40;;;17.00;99.90;;;;;;5079729;28;20181;-65
2022/12/31 10:18:31;;;;;;;2.38;1.92;;;17.00;99.90;;;;;;5095621;28;20303;-64
2022/12/31 10:21:18;;;;;;;2.38;2.03;;;17.00;99.90;;;;;;5095619;28;20626;-65
2022/12/31 10:24:05;;;;;;;6.30;2.63;;;17.10;99.90;;;;;;5094674;28;20581;-66
2022/12/31 10:26:43;;;;;;;2.88;2.03;;;17.20;99.90;;;;;;5095727;28;20230;-65
2022/12/31 10:29:33;;;;;;;2.95;2.63;;;17.20;99.90;;;;;;5094491;28;20559;-66
2022/12/31 10:32:42;;;;;;;3.58;2.10;;;17.10;99.90;;;;;;5094293;28;20181;-66
2022/12/31 10:35:16;;;;;;;3.67;2.08;;;17.20;99.90;;;;;;5078202;28;20272;-66
2022/12/31 10:37:45;;;;;;;2.30;2.17;;;17.10;99.90;;;;;;5095386;28;20161;-66
2022/12/31 10:40:58;;;;;;;2.75;2.28;;;17.20;99.90;;;;;;5095195;28;20193;-66
2022/12/31 10:43:33;;;;;;;6.55;2.40;;;17.10;99.90;;;;;;5095229;28;20196;-65
2022/12/31 10:46:19;;;;;;;4.78;2.35;;;17.20;99.90;;;;;;5095163;28;20165;-66
2022/12/31 10:49:21;;;;;;;5.13;2.40;;;17.20;99.90;;;;;;5093677;28;20180;-65
2022/12/31 10:52:20;;;;;;;6.43;2.40;;;17.30;99.90;;;;;;5094647;28;20218;-65
2022/12/31 10:54:49;;;;;;;4.65;2.30;;;17.30;99.90;;;;;;5095079;28;20157;-65
2022/12/31 10:57:33;;;;;;;4.85;2.30;;;17.30;99.90;;;;;;5095046;28;20184;-65
2022/12/31 11:00:22;;;;;;;2.35;2.00;;;17.30;99.90;;;;;;5094815;28;20193;-65
2022/12/31 11:03:16;;;;;;;5.07;2.55;;;17.30;99.90;;;;;;5091961;28;20283;-66
2022/12/31 11:06:35;;;;;;;4.90;2.40;;;17.30;99.90;;;;;;5095564;28;20526;-65
2022/12/31 11:09:23;;;;;;;3.50;2.30;;;17.40;99.90;;;;;;5072341;28;20210;-65
2022/12/31 11:12:16;;;;;;;3.10;2.20;;;17.30;99.90;;;;;;5094676;28;20165;-66
2022/12/31 11:15:11;;;;;;;3.58;2.25;;;17.30;99.90;;;;;;5094939;28;20165;-65
2022/12/31 11:17:46;;;;;;;5.63;2.15;;;17.40;99.90;;;;;;5077466;28;20311;-66
2022/12/31 11:20:23;;;;;;;5.35;2.45;;;17.40;99.90;;;;;;5094497;28;20188;-65
2022/12/31 11:23:14;;;;;;;3.97;1.95;;;17.40;99.90;;;;;;5094462;28;20157;-66
2022/12/31 11:26:10;;;;;;;2.28;2.03;;;17.30;99.90;;;;;;5093167;28;20575;-66
2022/12/31 11:28:57;;;;;;;2.97;2.15;;;17.40;99.90;;;;;;5094472;28;20244;-65
2022/12/31 11:32:10;;;;;;;3.50;2.53;;;17.40;99.90;;;;;;5094459;28;20177;-66
2022/12/31 11:34:47;;;;;;;6.10;1.98;;;17.50;99.90;;;;;;5085855;28;20177;-65
2022/12/31 11:37:32;;;;;;;2.40;1.90;;;17.60;99.90;;;;;;5094544;28;20161;-71
2022/12/31 11:40:14;;;;;;;5.03;2.17;;;17.70;99.90;;;;;;5094595;28;20721;-67
2022/12/31 11:42:49;;;;;;;4.15;2.10;;;17.60;99.90;;;;;;5094971;28;20169;-67
2022/12/31 11:45:38;;;;;;;3.90;2.00;;;17.50;99.90;;;;;;5094189;28;20633;-67
2022/12/31 11:48:19;;;;;;;3.63;2.10;;;17.50;99.90;;;;;;5092690;28;20203;-67
2022/12/31 11:51:32;;;;;;;4.10;1.92;;;17.50;99.90;;;;;;5093420;28;20220;-66
2022/12/31 11:54:25;;;;;;;2.90;1.70;;;17.50;99.90;;;;;;5090123;28;20192;-65
2022/12/31 11:57:03;;;;;;;2.92;2.63;;;17.50;99.90;;;;;;5093066;28;20637;-65
2022/12/31 11:59:29;;;;;;;2.35;2.10;;;17.50;99.90;;;;;;5093019;28;20598;-65
2022/12/31 12:02:27;;;;;;;3.10;1.90;;;17.50;99.90;;;;;;5093428;28;20241;-71
2022/12/31 12:04:56;;;;;;;2.55;2.28;;;17.50;99.90;;;;;;5092428;28;20177;-65
2022/12/31 12:07:22;;;;;;;3.42;2.00;;;17.40;99.90;;;;;;5093128;28;20193;-66
2022/12/31 12:09:51;;;;;;;4.13;2.10;;;17.40;99.90;;;;;;5092812;28;20193;-67
2022/12/31 12:12:17;;;;;;;4.13;2.28;;;17.40;99.90;;;;;;5093856;28;20633;-67
2022/12/31 12:14:49;;;;;;;2.08;1.85;;;17.40;99.90;;;;;;5091753;28;20182;-67
2022/12/31 12:17:31;;;;;;;2.85;2.22;;;17.40;99.90;;;;;;5093422;28;20180;-65
2022/12/31 12:20:03;;;;;;;3.35;2.15;;;17.40;99.90;;;;;;5092731;28;20200;-65
2022/12/31 12:22:31;;;;;;;2.75;2.00;;;17.30;99.90;;;;;;5093161;28;20193;-65
2022/12/31 12:25:15;;;;;;;2.85;2.25;;;17.30;99.90;;;;;;5093535;28;20179;-65
2022/12/31 12:27:41;;;;;;;3.60;2.08;;;17.40;99.90;;;;;;5093229;28;20189;-66
2022/12/31 12:30:13;;;;;;;2.00;1.90;;;17.40;99.90;;;;;;5093298;28;20583;-66
2022/12/31 12:32:49;;;;;;;2.65;2.10;;;17.30;99.90;;;;;;5092992;28;20161;-65
2022/12/31 12:35:21;;;;;;;4.32;1.90;;;17.30;99.90;;;;;;5092974;28;20160;-65
2022/12/31 12:38:07;;;;;;;4.00;2.00;;;17.30;99.90;;;;;;5092937;28;20161;-66
2022/12/31 12:40:34;;;;;;;3.22;1.90;;;17.20;99.90;;;;;;5092911;28;20661;-66
2022/12/31 12:43:00;;;;;;;2.78;2.10;;;17.10;99.90;;;;;;5050831;28;1190797;-65
2022/12/31 12:45:35;;;;;;;4.25;2.08;;;17.10;99.90;;;;;;5093598;28;20314;-65
2022/12/31 12:48:06;;;;;;;5.63;1.80;;;17.10;99.90;;;;;;5093542;28;20206;-68
2022/12/31 12:50:43;;;;;;;2.97;2.05;;;17.10;99.90;;;;;;5093707;28;20573;-68
2022/12/31 12:53:56;;;;;;;6.03;2.97;;;17.10;99.90;;;;;;5091910;28;20161;-68
2022/12/31 12:56:43;;;;;;;2.05;1.95;;;17.00;99.90;;;;;;5093453;28;20189;-68
2022/12/31 12:59:38;;;;;;;2.47;2.17;;;16.90;99.90;;;;;;5094301;28;20653;-68
2022/12/31 13:02:26;;;;;;;2.75;2.10;;;16.70;99.90;;;;;;5092877;28;20185;-68
2022/12/31 13:05:29;;;;;;;2.75;2.30;;;16.60;99.90;;;;;;5093127;28;20173;-68
2022/12/31 13:08:03;;;;;;;4.68;2.30;;;16.50;99.90;;;;;;5093544;28;20200;-68
2022/12/31 13:10:38;;;;;;;3.00;2.00;;;16.40;99.90;;;;;;5093774;28;20185;-68
2022/12/31 13:13:27;;;;;;;3.13;2.22;;;16.30;99.90;;;;;;5092101;28;20172;-68
2022/12/31 13:16:27;;;;;;;3.85;2.30;;;16.20;99.90;;;;;;5094809;28;20354;-68
2022/12/31 13:19:08;;;;;;;2.65;2.30;;;16.00;99.90;;;;;;5095799;28;20266;-68
2022/12/31 13:21:43;;;;;;;3.35;2.53;;;15.90;99.90;;;;;;5097085;28;20196;-68
2022/12/31 13:24:46;;;;;;;3.47;2.30;;;15.80;99.90;;;;;;5096740;28;20157;-67
2022/12/31 13:27:32;;;;;;;3.83;2.35;;;15.80;99.90;;;;;;5096863;28;20192;-67
2022/12/31 13:30:02;;;;;;;5.18;2.60;;;15.70;99.90;;;;;;5095337;28;20189;-68
2022/12/31 13:32:43;;;;;;;5.88;2.72;;;15.70;99.90;;;;;;5095392;28;20246;-68
2022/12/31 13:35:29;;;;;;;5.82;2.53;;;15.70;99.90;;;;;;5096663;28;20207;-71
2022/12/31 13:38:27;;;;;;;4.53;2.40;;;15.60;99.90;;;;;;5096563;28;20543;-65
2022/12/31 13:41:21;;;;;;;6.57;2.70;;;15.60;99.90;;;;;;5096740;28;20189;-68
2022/12/31 13:44:44;;;;;;;4.75;2.50;;;15.50;99.90;;;;;;5094920;28;20193;-69